createdAt,value
2022-08-29T14:07:03.944Z,101064.16
2022-08-29T14:09:44.374Z,101070.03
2022-08-29T14:12:16.840Z,101074.25
2022-08-29T14:14:48.662Z,101072.91
2022-08-29T14:17:21.245Z,101074.59
2022-08-29T14:19:51.973Z,101075.00
2022-08-29T14:22:22.683Z,101080.81
2022-08-29T14:24:55.562Z,101083.44
2022-08-29T14:27:26.239Z,101090.03
2022-08-29T14:29:57.074Z,101095.84
2022-08-29T14:32:28.378Z,101092.84
2022-08-29T14:34:59.000Z,101096.03
2022-08-29T14:37:29.793Z,101094.53
2022-08-29T14:40:00.637Z,101102.56
2022-08-29T14:42:31.633Z,101100.63
2022-08-29T14:45:02.262Z,101089.13
2022-08-29T14:47:33.087Z,101098.03
2022-08-29T14:50:03.602Z,101114.38
2022-08-29T14:52:34.562Z,101115.09
2022-08-29T14:55:05.173Z,101116.63
2022-08-29T14:57:35.909Z,101116.88
2022-08-29T15:00:28.185Z,101119.03
2022-08-29T15:02:59.176Z,101120.56
2022-08-29T15:05:29.482Z,101116.38
2022-08-29T15:08:04.332Z,101124.03
2022-08-29T15:10:37.659Z,101126.19
2022-08-29T15:13:09.922Z,101132.94
2022-08-29T15:15:40.916Z,101129.66
2022-08-29T15:18:30.523Z,101119.97
2022-08-29T15:21:04.199Z,101113.63
2022-08-29T15:23:36.548Z,101114.16
2022-08-29T15:26:07.341Z,101118.03
2022-08-29T15:28:38.007Z,101118.22
2022-08-29T15:31:08.726Z,101108.03
2022-08-29T15:33:39.420Z,101102.53
2022-08-29T15:36:10.813Z,101099.34
2022-08-29T15:38:41.616Z,101092.41
2022-08-29T15:41:12.301Z,101083.81
2022-08-29T15:43:43.064Z,101075.06
2022-08-29T15:46:14.178Z,101070.44
2022-08-29T15:48:44.813Z,101062.16
2022-08-29T15:51:15.630Z,101065.56
2022-08-29T15:53:46.355Z,101055.84
2022-08-29T15:56:16.898Z,101052.59
2022-08-29T15:58:47.624Z,101056.47
2022-08-29T16:01:19.971Z,101047.06
2022-08-29T16:03:50.740Z,101045.94
2022-08-29T16:06:21.388Z,101049.03
2022-08-29T16:08:55.426Z,101055.84
2022-08-29T16:11:25.877Z,101052.25
2022-08-29T16:14:34.549Z,101053.69
2022-08-29T16:16:50.234Z,101049.03
2022-08-29T16:19:21.514Z,101044.63
2022-08-29T16:21:51.839Z,101048.00
2022-08-29T16:24:24.428Z,101040.84
2022-08-29T16:26:54.706Z,101051.88
2022-08-29T16:29:25.705Z,101036.13
2022-08-29T16:31:58.233Z,101033.69
2022-08-29T16:34:29.632Z,101032.59
2022-08-29T16:37:00.229Z,101029.00
2022-08-29T16:39:30.951Z,101026.88
2022-08-29T16:42:01.678Z,101026.88
2022-08-29T16:44:34.422Z,101031.56
2022-08-29T16:47:04.703Z,101023.47
2022-08-29T16:49:37.687Z,101025.44
2022-08-29T16:52:08.938Z,101023.78
2022-08-29T16:54:39.336Z,101028.50
2022-08-29T16:57:09.743Z,101031.47
2022-08-29T16:59:40.021Z,101036.56
2022-08-29T17:02:10.742Z,101028.50
2022-08-29T17:04:41.112Z,101031.88
2022-08-29T17:07:11.344Z,101030.25
2022-08-29T17:09:41.390Z,101032.16
2022-08-29T17:12:11.463Z,101030.53
2022-08-29T17:14:42.167Z,101027.78
2022-08-29T17:17:12.655Z,101023.41
2022-08-29T17:19:42.993Z,101024.72
2022-08-29T17:22:18.406Z,101035.75
2022-08-29T17:24:51.879Z,101036.56
2022-08-29T17:27:26.789Z,101034.31
2022-08-29T17:29:59.685Z,101024.91
2022-08-29T17:32:30.686Z,101029.63
2022-08-29T17:35:01.032Z,101035.16
2022-08-29T17:37:31.691Z,101027.69
2022-08-29T17:40:12.215Z,101020.53
2022-08-29T17:42:42.801Z,101039.53
2022-08-29T17:45:13.782Z,101030.44
2022-08-29T17:47:44.061Z,101034.31
2022-08-29T17:50:14.615Z,101029.31
2022-08-29T17:52:44.904Z,101031.25
2022-08-29T17:55:15.098Z,101027.38
2022-08-29T17:57:45.383Z,101028.50
2022-08-29T18:00:16.222Z,101030.75
2022-08-29T18:02:46.709Z,101026.34
2022-08-29T18:05:17.098Z,101023.91
2022-08-29T18:07:47.527Z,101025.53
2022-08-29T18:10:19.333Z,101024.72
2022-08-29T18:12:49.814Z,101022.25
2022-08-29T18:15:20.759Z,101026.34
2022-08-29T18:17:54.096Z,101028.78
2022-08-29T18:20:25.856Z,101030.53
2022-08-29T18:22:56.092Z,101023.41
2022-08-29T18:25:26.397Z,101020.34
2022-08-29T18:27:56.751Z,101015.94
2022-08-29T18:30:26.966Z,101004.13
2022-08-29T18:32:57.302Z,101002.16
2022-08-29T18:35:27.428Z,101008.00
2022-08-29T18:37:57.574Z,100997.88
2022-08-29T18:40:28.052Z,101001.97
2022-08-29T18:42:58.429Z,100996.75
2022-08-29T18:45:28.727Z,100997.56
2022-08-29T18:47:59.024Z,100998.69
2022-08-29T18:50:42.436Z,100996.75
2022-08-29T18:53:14.008Z,100990.72
2022-08-29T18:55:51.073Z,100992.69
2022-08-29T18:58:29.911Z,100991.38
2022-08-29T19:01:02.189Z,100990.13
2022-08-29T19:03:32.717Z,100994.31
2022-08-29T19:06:03.360Z,100989.31
2022-08-29T19:08:34.924Z,100983.28
2022-08-29T19:11:06.458Z,100982.78
2022-08-29T19:13:38.575Z,100983.91
2022-08-29T19:16:12.346Z,100979.69
2022-08-29T19:18:43.369Z,100969.84
2022-08-29T19:21:14.012Z,100969.50
2022-08-29T19:23:52.372Z,100978.47
2022-08-29T19:26:26.905Z,100974.59
2022-08-29T19:28:59.511Z,100963.38
2022-08-29T19:31:30.575Z,100963.56
2022-08-29T19:34:01.883Z,100954.41
2022-08-29T19:36:32.493Z,100960.41
2022-08-29T19:39:03.309Z,100947.16
2022-08-29T19:41:37.472Z,100947.97
2022-08-29T19:44:08.144Z,100954.28
2022-08-29T19:46:38.783Z,100941.53
2022-08-29T19:49:09.501Z,100935.00
2022-08-29T19:51:40.753Z,100935.31
2022-08-29T19:54:12.613Z,100929.91
2022-08-29T19:56:46.835Z,100926.84
2022-08-29T19:59:17.860Z,100919.50
2022-08-29T20:01:49.718Z,100919.81
2022-08-29T20:04:20.191Z,100921.97
2022-08-29T20:06:50.971Z,100914.72
2022-08-29T20:09:21.731Z,100916.13
2022-08-29T20:11:56.125Z,100914.50
2022-08-29T20:14:26.832Z,100917.88
2022-08-29T20:16:57.722Z,100915.31
2022-08-29T20:19:29.592Z,100910.94
2022-08-29T20:22:00.262Z,100904.91
2022-08-29T20:24:30.799Z,100901.84
2022-08-29T20:27:01.743Z,100903.97
2022-08-29T20:29:32.756Z,100906.03
2022-08-29T20:32:04.519Z,100911.44
2022-08-29T20:34:35.166Z,100910.94
2022-08-29T20:37:11.656Z,100912.56
2022-08-29T20:39:45.495Z,100910.09
2022-08-29T20:42:18.334Z,100914.31
2022-08-29T20:44:49.518Z,100908.78
2022-08-29T20:47:21.285Z,100911.22
2022-08-29T20:49:53.535Z,100916.97
2022-08-29T20:52:26.856Z,100902.50
2022-08-29T20:54:57.591Z,100900.81
2022-08-29T20:57:28.285Z,100903.56
2022-08-29T20:59:58.831Z,100898.91
2022-08-29T21:02:47.944Z,100904.19
2022-08-29T21:05:37.282Z,100901.44
2022-08-29T21:08:08.107Z,100895.91
2022-08-29T21:10:38.881Z,100901.44
2022-08-29T21:13:09.950Z,100894.28
2022-08-29T21:15:42.464Z,100886.03
2022-08-29T21:18:15.808Z,100885.00
2022-08-29T21:20:54.631Z,100886.13
2022-08-29T21:23:27.753Z,100881.13
2022-08-29T21:26:00.898Z,100884.56
2022-08-29T21:28:35.567Z,100884.41
2022-08-29T21:31:14.601Z,100892.16
2022-08-29T21:33:48.236Z,100891.22
2022-08-29T21:36:22.739Z,100891.81
2022-08-29T21:39:00.660Z,100889.91
2022-08-29T21:41:33.685Z,100891.81
2022-08-29T21:44:04.445Z,100895.22
2022-08-29T21:46:38.609Z,100898.78
2022-08-29T21:49:10.534Z,100896.34
2022-08-29T21:51:41.493Z,100900.72
2022-08-29T21:54:13.731Z,100893.28
2022-08-29T21:56:45.896Z,100898.28
2022-08-29T21:59:19.166Z,100897.97
2022-08-29T22:01:54.605Z,100893.38
2022-08-29T22:04:28.105Z,100900.50
2022-08-29T22:07:01.764Z,100896.13
2022-08-29T22:09:33.599Z,100893.88
2022-08-29T22:12:06.436Z,100896.13
2022-08-29T22:14:55.226Z,100896.97
2022-08-29T22:17:26.298Z,100899.38
2022-08-29T22:19:57.023Z,100900.50
2022-08-29T22:22:28.710Z,100907.47
2022-08-29T22:24:59.511Z,100898.88
2022-08-29T22:27:30.144Z,100910.91
2022-08-29T22:30:03.679Z,100908.16
2022-08-29T22:32:35.505Z,100910.41
2022-08-29T22:35:08.626Z,100911.94
2022-08-29T22:37:39.569Z,100916.94
2022-08-29T22:40:15.250Z,100913.69
2022-08-29T22:42:47.536Z,100910.00
2022-08-29T22:45:21.270Z,100917.44
2022-08-29T22:47:51.757Z,100918.56
2022-08-29T22:50:25.450Z,100918.56
2022-08-29T22:53:01.094Z,100920.81
2022-08-29T22:58:00.027Z,100924.88
2022-08-29T23:00:30.697Z,100927.34
2022-08-29T23:03:01.413Z,100927.97
